Richland, New York
Current Conditions -  °F | °C
As of 5:54 PM on Wednesday 22 Oct 2014 (Local Time) from KFZY Reporting Station
Overcast Overcast  
Wind Chill: 44°   Ceiling: 6500
Heat Index: 49°   Visibility: 10mi
Dew Point: 41°   Wind: 13mph
Humidity: 74%   Direction: 10°N
Pressure: 30.14"   Gusts: 22mph
Location:  43.57°N, 76.05°W
Report Text: KFZY 222154Z AUTO 01011G19KT 10SM FEW017 OVC065 09/05 A3014 RMK AO2 SLP208 T00940050
Loading
Personal Weather Stations






























Interactive Weather Map
Tropical Storm Tracking
New forecast layout! Learn more

10-Day Weather Forecast

Advertisements
Track Severe Weather on mobile